N605VV KPIL-KGLS
Flight info
| Callsign | N605VV |
|---|---|
| Flight time | 0h 47m |
| Altitude | 36000 |
| Route | CRP TSHRT2 |
| Aircraft | CL60/M-SBDE1E2E3FGHIJ1J4J5J7M3RWXYZ/LB1V1D1 |
Departure
| Time | 2026-05-05 23:07 |
|---|---|
| Airport | Port Isabel Cameron County Airport (KPIL) |
Arrival
| Time | 2026-05-05 23:54 |
|---|---|
| Airport | Scholes International At Galveston Airport (KGLS) |
| Time | Latitude | Longitude | Altitude | Speed | Heading |
|---|---|---|---|---|---|
| 2026-05-05 22:35 | 26.16158 | -97.34148 | 20 ft | 0 kts | 179° |
| 2026-05-05 23:03 | 26.16150 | -97.34149 | 20 ft | 3 kts | 192° |
| 2026-05-05 23:03 | 26.16135 | -97.34122 | 20 ft | 5 kts | 88° |
| 2026-05-05 23:03 | 26.16165 | -97.34096 | 20 ft | 8 kts | 2° |
| 2026-05-05 23:03 | 26.16215 | -97.34068 | 20 ft | 8 kts | 57° |
| 2026-05-05 23:04 | 26.16272 | -97.34080 | 20 ft | 12 kts | 314° |
| 2026-05-05 23:04 | 26.16340 | -97.34158 | 20 ft | 16 kts | 315° |
| 2026-05-05 23:04 | 26.16429 | -97.34257 | 20 ft | 19 kts | 315° |
| 2026-05-05 23:04 | 26.16530 | -97.34370 | 20 ft | 22 kts | 314° |
| 2026-05-05 23:05 | 26.16647 | -97.34500 | 20 ft | 25 kts | 316° |
| 2026-05-05 23:05 | 26.16782 | -97.34651 | 19 ft | 29 kts | 316° |
| 2026-05-05 23:05 | 26.16933 | -97.34818 | 19 ft | 32 kts | 314° |
| 2026-05-05 23:05 | 26.17058 | -97.34956 | 18 ft | 23 kts | 315° |
| 2026-05-05 23:06 | 26.17163 | -97.35071 | 18 ft | 16 kts | 325° |
| 2026-05-05 23:06 | 26.17228 | -97.35033 | 17 ft | 11 kts | 47° |
| 2026-05-05 23:06 | 26.17270 | -97.34974 | 17 ft | 8 kts | 87° |
| 2026-05-05 23:06 | 26.17206 | -97.34887 | 18 ft | 31 kts | 136° |
| 2026-05-05 23:07 | 26.16832 | -97.34465 | 20 ft | 121 kts | 135° |
| 2026-05-05 23:07 | 26.16130 | -97.33652 | 443 ft | 159 kts | 134° |
| 2026-05-05 23:07 | 26.15378 | -97.32675 | 1158 ft | 188 kts | 126° |
| 2026-05-05 23:07 | 26.14915 | -97.31250 | 1796 ft | 201 kts | 100° |
| 2026-05-05 23:08 | 26.15256 | -97.29686 | 2319 ft | 246 kts | 64° |
| 2026-05-05 23:08 | 26.16593 | -97.28336 | 3282 ft | 278 kts | 29° |
| 2026-05-05 23:08 | 26.18514 | -97.27898 | 4480 ft | 288 kts | 358° |
| 2026-05-05 23:08 | 26.20485 | -97.28120 | 5680 ft | 288 kts | 353° |
| 2026-05-05 23:09 | 26.22471 | -97.28331 | 6746 ft | 291 kts | 354° |
| 2026-05-05 23:09 | 26.24511 | -97.28522 | 7713 ft | 297 kts | 354° |
| 2026-05-05 23:09 | 26.26562 | -97.28714 | 8679 ft | 300 kts | 354° |
| 2026-05-05 23:09 | 26.28646 | -97.28910 | 9610 ft | 305 kts | 354° |
| 2026-05-05 23:10 | 26.30764 | -97.29110 | 10469 ft | 312 kts | 353° |
| 2026-05-05 23:10 | 26.33020 | -97.29326 | 10986 ft | 333 kts | 353° |
| 2026-05-05 23:10 | 26.35364 | -97.29549 | 11647 ft | 344 kts | 353° |
| 2026-05-05 23:10 | 26.37752 | -97.29775 | 12444 ft | 350 kts | 352° |
| 2026-05-05 23:11 | 26.40215 | -97.30008 | 13313 ft | 353 kts | 352° |
| 2026-05-05 23:11 | 26.42653 | -97.30240 | 14137 ft | 357 kts | 352° |
| 2026-05-05 23:11 | 26.45046 | -97.30466 | 14919 ft | 360 kts | 351° |
| 2026-05-05 23:11 | 26.47553 | -97.30705 | 15698 ft | 364 kts | 351° |
| 2026-05-05 23:12 | 26.50076 | -97.30945 | 16469 ft | 367 kts | 351° |
| 2026-05-05 23:12 | 26.52630 | -97.31188 | 17214 ft | 371 kts | 351° |
| 2026-05-05 23:12 | 26.55205 | -97.31434 | 17959 ft | 374 kts | 350° |
| 2026-05-05 23:12 | 26.57842 | -97.31686 | 18677 ft | 378 kts | 350° |
| 2026-05-05 23:13 | 26.60457 | -97.31936 | 19348 ft | 382 kts | 350° |
| 2026-05-05 23:13 | 26.63140 | -97.32192 | 20025 ft | 386 kts | 350° |
| 2026-05-05 23:13 | 26.65828 | -97.32449 | 20669 ft | 390 kts | 350° |
| 2026-05-05 23:13 | 26.68538 | -97.32708 | 21335 ft | 393 kts | 349° |
| 2026-05-05 23:14 | 26.71284 | -97.32971 | 21951 ft | 396 kts | 349° |
| 2026-05-05 23:14 | 26.74057 | -97.33237 | 22579 ft | 399 kts | 349° |
| 2026-05-05 23:14 | 26.76806 | -97.33500 | 23147 ft | 403 kts | 349° |
| 2026-05-05 23:14 | 26.79631 | -97.33772 | 23706 ft | 408 kts | 349° |
| 2026-05-05 23:15 | 26.82496 | -97.34046 | 24236 ft | 413 kts | 349° |
| 2026-05-05 23:15 | 26.85373 | -97.34322 | 24777 ft | 416 kts | 349° |
| 2026-05-05 23:15 | 26.88284 | -97.34602 | 25317 ft | 419 kts | 348° |
| 2026-05-05 23:15 | 26.91205 | -97.34882 | 25835 ft | 423 kts | 348° |
| 2026-05-05 23:16 | 26.94146 | -97.35165 | 26285 ft | 427 kts | 348° |
| 2026-05-05 23:16 | 26.97123 | -97.35452 | 26792 ft | 430 kts | 348° |
| 2026-05-05 23:16 | 27.00125 | -97.35741 | 27261 ft | 433 kts | 348° |
| 2026-05-05 23:16 | 27.03054 | -97.36022 | 27702 ft | 436 kts | 348° |
| 2026-05-05 23:17 | 27.06104 | -97.36317 | 28106 ft | 440 kts | 348° |
| 2026-05-05 23:17 | 27.09147 | -97.36610 | 28505 ft | 444 kts | 348° |
| 2026-05-05 23:17 | 27.12260 | -97.36910 | 28934 ft | 446 kts | 348° |
| 2026-05-05 23:17 | 27.15363 | -97.37209 | 29313 ft | 449 kts | 347° |
| 2026-05-05 23:18 | 27.18502 | -97.37512 | 29648 ft | 453 kts | 348° |
| 2026-05-05 23:18 | 27.21658 | -97.37817 | 29980 ft | 456 kts | 347° |
| 2026-05-05 23:18 | 27.24848 | -97.38124 | 30352 ft | 458 kts | 347° |
| 2026-05-05 23:18 | 27.28032 | -97.38432 | 30663 ft | 460 kts | 347° |
| 2026-05-05 23:19 | 27.31248 | -97.38743 | 30999 ft | 462 kts | 347° |
| 2026-05-05 23:19 | 27.34468 | -97.39054 | 31299 ft | 464 kts | 347° |
| 2026-05-05 23:19 | 27.37686 | -97.39365 | 31561 ft | 467 kts | 347° |
| 2026-05-05 23:19 | 27.40829 | -97.39671 | 31801 ft | 470 kts | 347° |
| 2026-05-05 23:20 | 27.44110 | -97.39989 | 32046 ft | 473 kts | 348° |
| 2026-05-05 23:20 | 27.47398 | -97.40306 | 32322 ft | 474 kts | 347° |
| 2026-05-05 23:20 | 27.50707 | -97.40627 | 32569 ft | 475 kts | 347° |
| 2026-05-05 23:20 | 27.53973 | -97.40943 | 32897 ft | 475 kts | 347° |
| 2026-05-05 23:21 | 27.57275 | -97.41262 | 33288 ft | 473 kts | 347° |
| 2026-05-05 23:21 | 27.60561 | -97.41580 | 33683 ft | 472 kts | 347° |
| 2026-05-05 23:21 | 27.63825 | -97.41895 | 34126 ft | 469 kts | 347° |
| 2026-05-05 23:21 | 27.67004 | -97.42203 | 34582 ft | 466 kts | 347° |
| 2026-05-05 23:22 | 27.70227 | -97.42517 | 34765 ft | 468 kts | 347° |
| 2026-05-05 23:22 | 27.73422 | -97.42831 | 34772 ft | 474 kts | 347° |
| 2026-05-05 23:22 | 27.80137 | -97.43326 | 34774 ft | 490 kts | 353° |
| 2026-05-05 23:23 | 27.87029 | -97.42525 | 34780 ft | 508 kts | 5° |
| 2026-05-05 23:23 | 27.93819 | -97.40041 | 34779 ft | 521 kts | 19° |
| 2026-05-05 23:24 | 28.00116 | -97.35777 | 34773 ft | 531 kts | 33° |
| 2026-05-05 23:24 | 28.05908 | -97.30595 | 34777 ft | 531 kts | 34° |
| 2026-05-05 23:25 | 28.11567 | -97.25517 | 34784 ft | 531 kts | 34° |
| 2026-05-05 23:25 | 28.17362 | -97.20309 | 34779 ft | 531 kts | 34° |
| 2026-05-05 23:26 | 28.23149 | -97.15102 | 34776 ft | 532 kts | 34° |
| 2026-05-05 23:26 | 28.28975 | -97.09852 | 34786 ft | 533 kts | 34° |
| 2026-05-05 23:27 | 28.34758 | -97.04634 | 34804 ft | 533 kts | 34° |
| 2026-05-05 23:27 | 28.40563 | -96.99388 | 34677 ft | 534 kts | 33° |
| 2026-05-05 23:28 | 28.43471 | -96.96757 | 34105 ft | 530 kts | 34° |
| 2026-05-05 23:28 | 28.46346 | -96.94152 | 33342 ft | 527 kts | 33° |
| 2026-05-05 23:28 | 28.49229 | -96.91541 | 32400 ft | 528 kts | 33° |
| 2026-05-05 23:28 | 28.52086 | -96.88953 | 31430 ft | 531 kts | 33° |
| 2026-05-05 23:29 | 28.54970 | -96.86338 | 30432 ft | 533 kts | 33° |
| 2026-05-05 23:29 | 28.57890 | -96.83688 | 29422 ft | 534 kts | 33° |
| 2026-05-05 23:29 | 28.60806 | -96.81038 | 28403 ft | 534 kts | 33° |
| 2026-05-05 23:29 | 28.63675 | -96.78427 | 27414 ft | 532 kts | 33° |
| 2026-05-05 23:30 | 28.66553 | -96.75808 | 26481 ft | 528 kts | 33° |
| 2026-05-05 23:30 | 28.69419 | -96.73196 | 25720 ft | 521 kts | 33° |
| 2026-05-05 23:30 | 28.72197 | -96.70660 | 25080 ft | 512 kts | 33° |
| 2026-05-05 23:30 | 28.74986 | -96.68113 | 24353 ft | 506 kts | 33° |
| 2026-05-05 23:31 | 28.77699 | -96.65635 | 23596 ft | 500 kts | 34° |
| 2026-05-05 23:31 | 28.80414 | -96.63154 | 22735 ft | 497 kts | 33° |
| 2026-05-05 23:31 | 28.83084 | -96.60714 | 21879 ft | 494 kts | 34° |
| 2026-05-05 23:31 | 28.85762 | -96.58265 | 21002 ft | 490 kts | 34° |
| 2026-05-05 23:32 | 28.88396 | -96.55856 | 20132 ft | 487 kts | 34° |
| 2026-05-05 23:32 | 28.90999 | -96.53371 | 19271 ft | 484 kts | 40° |
| 2026-05-05 23:32 | 28.93108 | -96.50407 | 18580 ft | 481 kts | 56° |
| 2026-05-05 23:32 | 28.94569 | -96.46970 | 17931 ft | 473 kts | 66° |
| 2026-05-05 23:33 | 28.95745 | -96.43511 | 17330 ft | 463 kts | 67° |
| 2026-05-05 23:33 | 28.96901 | -96.40124 | 16849 ft | 450 kts | 67° |
| 2026-05-05 23:33 | 28.98018 | -96.36845 | 16525 ft | 434 kts | 67° |
| 2026-05-05 23:33 | 28.99087 | -96.33709 | 16235 ft | 420 kts | 68° |
| 2026-05-05 23:34 | 29.00123 | -96.30666 | 15942 ft | 406 kts | 68° |
| 2026-05-05 23:34 | 29.01143 | -96.27666 | 15647 ft | 394 kts | 68° |
| 2026-05-05 23:34 | 29.02115 | -96.24807 | 15304 ft | 386 kts | 68° |
| 2026-05-05 23:34 | 29.03085 | -96.21954 | 14748 ft | 384 kts | 68° |
| 2026-05-05 23:35 | 29.04046 | -96.19125 | 14185 ft | 382 kts | 68° |
| 2026-05-05 23:35 | 29.05001 | -96.16312 | 13622 ft | 380 kts | 68° |
| 2026-05-05 23:35 | 29.05946 | -96.13524 | 13124 ft | 375 kts | 68° |
| 2026-05-05 23:35 | 29.06885 | -96.10755 | 12635 ft | 371 kts | 69° |
| 2026-05-05 23:36 | 29.07794 | -96.08070 | 12261 ft | 363 kts | 69° |
| 2026-05-05 23:36 | 29.08692 | -96.05416 | 12202 ft | 341 kts | 69° |
| 2026-05-05 23:36 | 29.09519 | -96.02969 | 12067 ft | 326 kts | 69° |
| 2026-05-05 23:36 | 29.10337 | -96.00549 | 11814 ft | 320 kts | 69° |
| 2026-05-05 23:37 | 29.11150 | -95.98143 | 11492 ft | 317 kts | 69° |
| 2026-05-05 23:37 | 29.11933 | -95.95821 | 11167 ft | 314 kts | 70° |
| 2026-05-05 23:37 | 29.12713 | -95.93508 | 10842 ft | 311 kts | 70° |
| 2026-05-05 23:37 | 29.13493 | -95.91194 | 10512 ft | 308 kts | 70° |
| 2026-05-05 23:38 | 29.14255 | -95.88931 | 10159 ft | 306 kts | 70° |
| 2026-05-05 23:38 | 29.15021 | -95.86657 | 9840 ft | 302 kts | 70° |
| 2026-05-05 23:38 | 29.15768 | -95.84438 | 9499 ft | 300 kts | 71° |
| 2026-05-05 23:38 | 29.16517 | -95.82207 | 9143 ft | 298 kts | 71° |
| 2026-05-05 23:39 | 29.17249 | -95.80029 | 8789 ft | 296 kts | 71° |
| 2026-05-05 23:39 | 29.17990 | -95.77822 | 8422 ft | 294 kts | 71° |
| 2026-05-05 23:39 | 29.18726 | -95.75629 | 8051 ft | 292 kts | 71° |
| 2026-05-05 23:39 | 29.19450 | -95.73469 | 7700 ft | 290 kts | 71° |
| 2026-05-05 23:40 | 29.20168 | -95.71325 | 7314 ft | 289 kts | 71° |
| 2026-05-05 23:40 | 29.20882 | -95.69191 | 6960 ft | 287 kts | 71° |
| 2026-05-05 23:40 | 29.21598 | -95.67053 | 6607 ft | 285 kts | 71° |
| 2026-05-05 23:40 | 29.22303 | -95.64945 | 6214 ft | 285 kts | 71° |
| 2026-05-05 23:41 | 29.23005 | -95.62843 | 5869 ft | 283 kts | 71° |
| 2026-05-05 23:41 | 29.23710 | -95.60734 | 5538 ft | 280 kts | 71° |
| 2026-05-05 23:41 | 29.24397 | -95.58675 | 5220 ft | 277 kts | 71° |
| 2026-05-05 23:41 | 29.25042 | -95.56741 | 4889 ft | 276 kts | 72° |
| 2026-05-05 23:42 | 29.25732 | -95.54672 | 4536 ft | 275 kts | 72° |
| 2026-05-05 23:42 | 29.26409 | -95.52641 | 4202 ft | 272 kts | 72° |
| 2026-05-05 23:42 | 29.27085 | -95.50612 | 3889 ft | 270 kts | 72° |
| 2026-05-05 23:42 | 29.27747 | -95.48621 | 3549 ft | 268 kts | 72° |
| 2026-05-05 23:43 | 29.28398 | -95.46667 | 3222 ft | 267 kts | 73° |
| 2026-05-05 23:43 | 29.29051 | -95.44702 | 2889 ft | 265 kts | 73° |
| 2026-05-05 23:43 | 29.29712 | -95.42715 | 2571 ft | 263 kts | 73° |
| 2026-05-05 23:43 | 29.30351 | -95.40791 | 2302 ft | 259 kts | 73° |
| 2026-05-05 23:44 | 29.30980 | -95.38903 | 2291 ft | 243 kts | 73° |
| 2026-05-05 23:44 | 29.31571 | -95.37130 | 2208 ft | 231 kts | 73° |
| 2026-05-05 23:44 | 29.32132 | -95.35445 | 1893 ft | 225 kts | 74° |
| 2026-05-05 23:44 | 29.32687 | -95.33767 | 1755 ft | 225 kts | 75° |
| 2026-05-05 23:45 | 29.33248 | -95.32068 | 1765 ft | 226 kts | 74° |
| 2026-05-05 23:45 | 29.33810 | -95.30366 | 1771 ft | 228 kts | 75° |
| 2026-05-05 23:45 | 29.34372 | -95.28664 | 1764 ft | 228 kts | 74° |
| 2026-05-05 23:45 | 29.34933 | -95.26962 | 1762 ft | 228 kts | 74° |
| 2026-05-05 23:46 | 29.35498 | -95.25251 | 1766 ft | 228 kts | 74° |
| 2026-05-05 23:46 | 29.36062 | -95.23542 | 1766 ft | 229 kts | 74° |
| 2026-05-05 23:46 | 29.36625 | -95.21835 | 1766 ft | 229 kts | 74° |
| 2026-05-05 23:46 | 29.37188 | -95.20129 | 1766 ft | 229 kts | 74° |
| 2026-05-05 23:47 | 29.37751 | -95.18421 | 1766 ft | 229 kts | 74° |
| 2026-05-05 23:47 | 29.38318 | -95.16698 | 1770 ft | 229 kts | 74° |
| 2026-05-05 23:47 | 29.38845 | -95.15098 | 1770 ft | 229 kts | 75° |
| 2026-05-05 23:47 | 29.39406 | -95.13393 | 1766 ft | 229 kts | 75° |
| 2026-05-05 23:48 | 29.39976 | -95.11661 | 1763 ft | 228 kts | 75° |
| 2026-05-05 23:48 | 29.40539 | -95.09952 | 1761 ft | 228 kts | 74° |
| 2026-05-05 23:48 | 29.41092 | -95.08270 | 1761 ft | 228 kts | 75° |
| 2026-05-05 23:48 | 29.41660 | -95.06548 | 1756 ft | 229 kts | 71° |
| 2026-05-05 23:49 | 29.42668 | -95.05103 | 1752 ft | 238 kts | 43° |
| 2026-05-05 23:49 | 29.43289 | -95.03514 | 1588 ft | 208 kts | 108° |
| 2026-05-05 23:49 | 29.42607 | -95.02119 | 1745 ft | 201 kts | 128° |
| 2026-05-05 23:49 | 29.41773 | -95.00751 | 1829 ft | 214 kts | 132° |
| 2026-05-05 23:50 | 29.40784 | -94.99504 | 1775 ft | 207 kts | 140° |
| 2026-05-05 23:50 | 29.39698 | -94.98444 | 1765 ft | 205 kts | 146° |
| 2026-05-05 23:50 | 29.38553 | -94.97468 | 1766 ft | 204 kts | 147° |
| 2026-05-05 23:50 | 29.37391 | -94.96488 | 1768 ft | 204 kts | 146° |
| 2026-05-05 23:51 | 29.36275 | -94.95486 | 1771 ft | 204 kts | 144° |
| 2026-05-05 23:51 | 29.35198 | -94.94458 | 1773 ft | 191 kts | 143° |
| 2026-05-05 23:51 | 29.34267 | -94.93537 | 1713 ft | 162 kts | 144° |
| 2026-05-05 23:51 | 29.33494 | -94.92772 | 1556 ft | 134 kts | 144° |
| 2026-05-05 23:52 | 29.32778 | -94.92084 | 1379 ft | 130 kts | 145° |
| 2026-05-05 23:52 | 29.32084 | -94.91431 | 1220 ft | 127 kts | 146° |
| 2026-05-05 23:52 | 29.31403 | -94.90795 | 1069 ft | 127 kts | 145° |
| 2026-05-05 23:52 | 29.30714 | -94.90147 | 907 ft | 127 kts | 145° |
| 2026-05-05 23:53 | 29.30031 | -94.89500 | 725 ft | 127 kts | 145° |
| 2026-05-05 23:53 | 29.29342 | -94.88855 | 563 ft | 127 kts | 143° |
| 2026-05-05 23:53 | 29.28680 | -94.88197 | 445 ft | 128 kts | 141° |
| 2026-05-05 23:53 | 29.28000 | -94.87546 | 266 ft | 127 kts | 146° |
| 2026-05-05 23:54 | 29.27314 | -94.86904 | 103 ft | 127 kts | 143° |
| 2026-05-05 23:54 | 29.26650 | -94.86274 | 11 ft | 107 kts | 143° |
| 2026-05-05 23:54 | 29.26352 | -94.85987 | 11 ft | 27 kts | 139° |
| 2026-05-05 23:54 | 29.26201 | -94.85847 | 11 ft | 27 kts | 139° |
| 2026-05-05 23:55 | 29.26054 | -94.85703 | 11 ft | 28 kts | 141° |
| 2026-05-05 23:55 | 29.25965 | -94.85608 | 11 ft | 14 kts | 118° |
| 2026-05-05 23:55 | 29.25993 | -94.85552 | 11 ft | 9 kts | 10° |
| 2026-05-05 23:55 | 29.26072 | -94.85549 | 11 ft | 13 kts | 0° |
| 2026-05-05 23:56 | 29.26158 | -94.85613 | 11 ft | 16 kts | 320° |
| 2026-05-05 23:56 | 29.26256 | -94.85704 | 11 ft | 19 kts | 319° |
| 2026-05-05 23:56 | 29.26371 | -94.85776 | 11 ft | 20 kts | 6° |
| 2026-05-05 23:56 | 29.26504 | -94.85753 | 11 ft | 19 kts | 1° |